createdAt,value
2023-02-03T00:02:52.589Z,7.50
2023-02-03T00:05:54.922Z,7.49
2023-02-03T00:08:58.240Z,7.49
2023-02-03T00:12:01.461Z,7.57
2023-02-03T00:15:03.285Z,7.59
2023-02-03T00:18:05.387Z,7.64
2023-02-03T00:21:07.430Z,7.58
2023-02-03T00:24:09.191Z,7.57
2023-02-03T00:27:12.258Z,7.57
2023-02-03T00:30:14.205Z,7.60
2023-02-03T00:33:15.975Z,7.63
2023-02-03T00:36:17.718Z,7.61
2023-02-03T00:39:19.541Z,7.62
2023-02-03T00:42:23.020Z,7.64
2023-02-03T00:45:24.824Z,7.60
2023-02-03T00:48:26.656Z,7.60
2023-02-03T00:51:28.303Z,7.63
2023-02-03T00:54:32.050Z,7.55
2023-02-03T00:57:35.747Z,7.60
2023-02-03T01:00:37.508Z,7.60
2023-02-03T01:03:39.402Z,7.66
2023-02-03T01:06:41.259Z,7.62
2023-02-03T01:09:42.941Z,7.58
2023-02-03T01:12:47.035Z,7.60
2023-02-03T01:15:48.691Z,7.50
2023-02-03T01:18:50.919Z,7.56
2023-02-03T01:21:52.666Z,7.48
2023-02-03T01:24:54.346Z,7.52
2023-02-03T01:27:57.479Z,7.55
2023-02-03T01:31:10.066Z,7.57
2023-02-03T01:34:16.346Z,7.48
2023-02-03T01:37:19.188Z,7.55
2023-02-03T01:40:20.968Z,7.59
2023-02-03T01:43:32.845Z,7.52
2023-02-03T01:46:37.971Z,7.53
2023-02-03T01:49:44.889Z,7.51
2023-02-03T01:52:51.319Z,7.46
2023-02-03T01:55:53.528Z,7.56
2023-02-03T01:58:58.902Z,7.52
2023-02-03T02:02:02.304Z,7.54
2023-02-03T02:05:07.931Z,7.58
2023-02-03T02:08:12.623Z,7.69
2023-02-03T02:11:14.534Z,7.66
2023-02-03T02:14:18.334Z,7.68
2023-02-03T02:17:50.675Z,7.63
2023-02-03T02:21:11.842Z,7.70
2023-02-03T02:24:41.958Z,7.71
2023-02-03T02:28:06.301Z,7.66
2023-02-03T02:31:43.902Z,7.63
2023-02-03T02:34:57.365Z,7.63
2023-02-03T02:38:05.358Z,7.60
2023-02-03T02:41:15.015Z,7.59
2023-02-03T02:44:24.110Z,7.59
2023-02-03T02:47:27.428Z,7.69
2023-02-03T02:50:34.659Z,7.63
2023-02-03T02:53:40.391Z,7.56
2023-02-03T02:56:45.420Z,7.65
2023-02-03T02:59:47.311Z,7.61
2023-02-03T03:02:50.413Z,7.65
2023-02-03T03:05:56.094Z,7.63
2023-02-03T03:09:06.094Z,7.65
2023-02-03T03:12:12.567Z,7.64
2023-02-03T03:15:18.763Z,7.67
2023-02-03T03:18:26.711Z,7.67
2023-02-03T03:21:31.563Z,7.65
2023-02-03T03:24:39.162Z,7.67
2023-02-03T03:27:46.504Z,7.66
2023-02-03T03:30:48.721Z,7.54
2023-02-03T03:33:51.878Z,7.39
2023-02-03T03:37:01.192Z,7.28
2023-02-03T03:40:09.606Z,7.10
2023-02-03T03:43:16.716Z,7.07
2023-02-03T03:46:23.437Z,7.04
2023-02-03T03:49:28.665Z,6.99
2023-02-03T03:52:34.709Z,7.07
2023-02-03T03:55:39.615Z,7.09
2023-02-03T03:58:45.227Z,7.17
2023-02-03T04:01:48.548Z,7.06
2023-02-03T04:04:53.688Z,7.06
2023-02-03T04:07:56.091Z,7.22
2023-02-03T04:10:57.723Z,7.12
2023-02-03T04:13:59.338Z,7.29
2023-02-03T04:17:01.863Z,7.36
2023-02-03T04:20:05.691Z,7.34
2023-02-03T04:23:07.582Z,7.43
2023-02-03T04:26:09.316Z,7.47
2023-02-03T04:29:11.295Z,7.40
2023-02-03T04:32:13.044Z,7.32
2023-02-03T04:35:16.835Z,7.44
2023-02-03T04:38:18.537Z,7.40
2023-02-03T04:41:40.145Z,7.44
2023-02-03T04:44:41.756Z,7.41
2023-02-03T04:47:43.460Z,7.44
2023-02-03T04:50:46.554Z,7.42
2023-02-03T04:53:48.443Z,7.37
2023-02-03T04:56:50.150Z,7.42
2023-02-03T04:59:51.729Z,7.36
2023-02-03T05:02:53.605Z,7.40
2023-02-03T05:05:58.569Z,7.41
2023-02-03T05:09:00.314Z,7.38
2023-02-03T05:12:02.134Z,7.39
2023-02-03T05:15:04.215Z,7.44
2023-02-03T05:18:06.001Z,7.45
2023-02-03T05:21:09.288Z,7.42
2023-02-03T05:24:11.129Z,7.48
2023-02-03T05:27:12.918Z,7.45
2023-02-03T05:30:14.686Z,7.50
2023-02-03T05:33:16.919Z,7.43
2023-02-03T05:36:20.071Z,7.41
2023-02-03T05:39:21.838Z,7.47
2023-02-03T05:42:23.571Z,7.56
2023-02-03T05:45:25.591Z,7.55
2023-02-03T05:48:27.462Z,7.51
2023-02-03T05:51:30.640Z,7.56
2023-02-03T05:54:32.386Z,7.51
2023-02-03T05:57:34.151Z,7.59
2023-02-03T06:00:35.907Z,7.58
2023-02-03T06:03:37.982Z,7.54
2023-02-03T06:06:41.192Z,7.54
2023-02-03T06:09:42.856Z,7.59
2023-02-03T06:12:44.948Z,7.47
2023-02-03T06:15:46.608Z,7.53
2023-02-03T06:18:48.281Z,7.46
2023-02-03T06:21:51.342Z,7.60
2023-02-03T06:24:53.356Z,7.62
2023-02-03T06:27:55.139Z,7.62
2023-02-03T06:30:57.094Z,7.61
2023-02-03T06:33:59.602Z,7.56
2023-02-03T06:37:02.741Z,7.58
2023-02-03T06:40:05.468Z,7.59
2023-02-03T06:43:07.321Z,7.67
2023-02-03T06:46:09.130Z,7.59
2023-02-03T06:49:10.903Z,7.66
2023-02-03T06:52:15.435Z,7.63
2023-02-03T06:55:17.454Z,7.70
2023-02-03T06:58:19.184Z,7.70
2023-02-03T07:01:21.247Z,7.81
2023-02-03T07:04:24.862Z,7.81
2023-02-03T07:07:28.035Z,7.75
2023-02-03T07:10:29.989Z,7.82
2023-02-03T07:13:31.871Z,7.86
2023-02-03T07:16:34.317Z,7.80
2023-02-03T07:19:36.116Z,7.87
2023-02-03T07:22:42.391Z,7.82
2023-02-03T07:25:44.735Z,7.86
2023-02-03T07:28:46.666Z,7.84
2023-02-03T07:31:48.576Z,7.78
2023-02-03T07:34:50.395Z,7.85
2023-02-03T07:37:53.572Z,7.73
2023-02-03T07:40:55.845Z,7.76
2023-02-03T07:43:57.500Z,7.70
2023-02-03T07:46:59.295Z,7.71
2023-02-03T07:50:01.094Z,7.82
2023-02-03T07:53:06.603Z,7.75
2023-02-03T07:56:08.453Z,7.74
2023-02-03T07:59:10.144Z,7.70
2023-02-03T08:02:12.011Z,7.73
2023-02-03T08:05:14.132Z,7.79
2023-02-03T08:08:17.195Z,7.72
2023-02-03T08:11:18.921Z,7.73
2023-02-03T08:14:20.946Z,7.75
2023-02-03T08:17:22.855Z,7.74
2023-02-03T08:20:24.531Z,7.88
2023-02-03T08:23:27.546Z,7.87
2023-02-03T08:26:29.424Z,7.89
2023-02-03T08:29:31.108Z,7.95
2023-02-03T08:32:33.144Z,7.99
2023-02-03T08:35:34.974Z,7.93
2023-02-03T08:38:38.545Z,7.98
2023-02-03T08:41:40.245Z,7.96
2023-02-03T08:44:44.021Z,8.04
2023-02-03T08:47:45.824Z,7.97
2023-02-03T08:50:52.765Z,8.06
2023-02-03T08:53:55.912Z,8.15
2023-02-03T08:56:57.881Z,8.19
2023-02-03T08:59:59.585Z,8.14
2023-02-03T09:03:01.556Z,8.15
2023-02-03T09:06:03.847Z,8.20
2023-02-03T09:09:07.061Z,8.21
2023-02-03T09:12:10.663Z,8.26
2023-02-03T09:15:12.519Z,8.26
2023-02-03T09:18:14.303Z,8.26
2023-02-03T09:21:32.136Z,8.34
2023-02-03T09:24:37.123Z,8.30
2023-02-03T09:27:38.892Z,8.26
2023-02-03T09:30:40.675Z,8.28
2023-02-03T09:33:42.472Z,8.24
2023-02-03T09:36:44.130Z,8.25
2023-02-03T09:39:48.817Z,8.25
2023-02-03T09:43:29.372Z,8.31
2023-02-03T09:46:37.918Z,8.34
2023-02-03T09:49:43.215Z,8.36
2023-02-03T09:52:45.300Z,8.42
2023-02-03T09:55:48.865Z,8.44
2023-02-03T09:58:50.610Z,8.47
2023-02-03T10:01:58.490Z,8.50
2023-02-03T10:05:11.083Z,8.53
2023-02-03T10:08:22.938Z,8.53
2023-02-03T10:11:42.747Z,8.62
2023-02-03T10:14:56.262Z,8.63
2023-02-03T10:18:04.449Z,8.63
2023-02-03T10:21:14.552Z,8.56
2023-02-03T10:24:21.943Z,8.63
2023-02-03T10:27:25.498Z,8.61
2023-02-03T10:30:33.037Z,8.59
2023-02-03T10:33:35.239Z,8.52
2023-02-03T10:36:51.441Z,8.48
2023-02-03T10:39:54.414Z,8.47
2023-02-03T10:43:16.807Z,8.47
2023-02-03T10:46:21.602Z,8.48
2023-02-03T10:49:27.684Z,8.47
2023-02-03T10:52:31.816Z,8.50
2023-02-03T10:55:33.615Z,8.55
2023-02-03T10:58:39.172Z,8.54
2023-02-03T11:01:44.475Z,8.57
2023-02-03T11:04:46.597Z,8.61
2023-02-03T11:07:48.703Z,8.63
2023-02-03T11:11:01.398Z,8.64
2023-02-03T11:14:17.134Z,8.74
2023-02-03T11:17:23.086Z,8.77
2023-02-03T11:20:27.445Z,8.72
2023-02-03T11:23:29.432Z,8.74
2023-02-03T11:26:35.829Z,8.76
2023-02-03T11:29:42.656Z,8.73
2023-02-03T11:32:46.788Z,8.64
2023-02-03T11:35:56.208Z,8.51
2023-02-03T11:39:26.642Z,8.57
2023-02-03T11:42:28.283Z,8.58
2023-02-03T11:45:38.590Z,8.57
2023-02-03T11:48:56.096Z,8.49
2023-02-03T11:52:06.081Z,8.47
2023-02-03T11:55:16.605Z,8.52
2023-02-03T11:58:44.725Z,8.55
2023-02-03T12:02:07.011Z,8.52
2023-02-03T12:05:29.809Z,8.58
2023-02-03T12:08:51.390Z,8.58
2023-02-03T12:12:20.072Z,8.59
2023-02-03T12:15:50.060Z,8.61
2023-02-03T12:19:04.648Z,8.59
2023-02-03T12:22:15.981Z,8.62
2023-02-03T12:25:33.423Z,8.58
2023-02-03T12:28:47.045Z,8.57
2023-02-03T12:31:56.474Z,8.57
2023-02-03T12:35:12.713Z,8.56
2023-02-03T12:38:21.437Z,8.60
2023-02-03T12:41:26.751Z,8.57
2023-02-03T12:44:35.589Z,8.63
2023-02-03T12:47:42.398Z,8.63
2023-02-03T12:50:50.671Z,8.69
2023-02-03T12:53:58.806Z,8.77
2023-02-03T12:57:13.881Z,8.79
2023-02-03T13:00:28.817Z,8.93
2023-02-03T13:03:36.613Z,8.89
2023-02-03T13:06:48.945Z,8.84
2023-02-03T13:09:59.113Z,8.84
2023-02-03T13:13:03.359Z,8.83
2023-02-03T13:16:08.430Z,8.86
2023-02-03T13:19:17.556Z,8.86
2023-02-03T13:22:23.912Z,8.76
2023-02-03T13:25:32.921Z,8.73
2023-02-03T13:28:48.827Z,8.72
2023-02-03T13:32:05.231Z,8.65
2023-02-03T13:35:32.240Z,8.69
2023-02-03T13:38:50.728Z,8.70
2023-02-03T13:41:54.327Z,8.64
2023-02-03T13:45:08.252Z,8.66
2023-02-03T13:48:15.811Z,8.62
2023-02-03T13:51:20.507Z,8.60
2023-02-03T13:54:28.527Z,8.61
2023-02-03T13:57:34.646Z,8.59
2023-02-03T14:01:05.082Z,8.57
2023-02-03T14:04:08.843Z,8.57
2023-02-03T14:07:33.283Z,8.55
2023-02-03T14:10:37.318Z,8.56
2023-02-03T14:13:39.175Z,8.56
2023-02-03T14:16:41.955Z,8.57
2023-02-03T14:19:56.645Z,8.51
2023-02-03T14:23:06.604Z,8.54
2023-02-03T14:26:19.862Z,8.53
2023-02-03T14:29:27.329Z,8.55
2023-02-03T14:32:49.341Z,8.52
2023-02-03T14:35:51.365Z,8.50
2023-02-03T14:38:54.116Z,8.50
2023-02-03T14:42:06.452Z,8.53
2023-02-03T14:45:19.428Z,8.50
2023-02-03T14:48:46.276Z,8.46
2023-02-03T14:52:03.579Z,8.53
2023-02-03T14:55:21.100Z,8.55
2023-02-03T14:58:29.592Z,8.53
2023-02-03T15:02:04.770Z,8.55
2023-02-03T15:05:38.237Z,8.53
2023-02-03T15:08:45.974Z,8.53
2023-02-03T15:11:47.937Z,8.56
2023-02-03T15:14:51.076Z,8.55
2023-02-03T15:17:54.630Z,8.56
2023-02-03T15:20:57.091Z,8.51
2023-02-03T15:23:59.391Z,8.54
2023-02-03T15:27:01.377Z,8.49
2023-02-03T15:30:17.265Z,8.52
2023-02-03T15:33:21.844Z,8.49
2023-02-03T15:36:29.199Z,8.50
2023-02-03T15:39:41.007Z,8.49
2023-02-03T15:42:52.237Z,8.44
2023-02-03T15:46:01.424Z,8.39
2023-02-03T15:49:10.563Z,8.38
2023-02-03T15:52:16.554Z,8.40
2023-02-03T15:55:23.799Z,8.44
2023-02-03T15:58:27.980Z,8.38
2023-02-03T16:01:32.136Z,8.40
2023-02-03T16:04:34.228Z,8.40
2023-02-03T16:07:36.038Z,8.34
2023-02-03T16:10:37.841Z,8.39
2023-02-03T16:13:43.392Z,8.38
2023-02-03T16:17:04.302Z,8.33
2023-02-03T16:20:24.479Z,8.37
2023-02-03T16:23:30.020Z,8.39
2023-02-03T16:26:33.593Z,8.40
2023-02-03T16:29:55.184Z,8.38
2023-02-03T16:33:29.830Z,8.44
2023-02-03T16:36:50.514Z,8.43
2023-02-03T16:40:10.699Z,8.35
2023-02-03T16:43:32.962Z,8.47
2023-02-03T16:46:53.387Z,8.43
2023-02-03T16:50:15.148Z,8.46
2023-02-03T16:53:19.783Z,8.48
2023-02-03T16:56:21.916Z,8.36
2023-02-03T16:59:24.641Z,8.44
2023-02-03T17:02:26.875Z,8.44
2023-02-03T17:05:30.527Z,8.43
2023-02-03T17:08:33.385Z,8.44
2023-02-03T17:11:35.159Z,8.49
2023-02-03T17:14:38.629Z,8.49
2023-02-03T17:17:40.469Z,8.48
2023-02-03T17:20:44.845Z,8.38
2023-02-03T17:23:46.801Z,8.41
2023-02-03T17:26:49.178Z,8.39
2023-02-03T17:29:50.890Z,8.44
2023-02-03T17:32:52.826Z,8.41
2023-02-03T17:36:05.513Z,8.46
2023-02-03T17:58:56.116Z,8.34
2023-02-03T18:01:58.022Z,8.40
2023-02-03T18:04:59.826Z,8.35
2023-02-03T18:08:09.167Z,8.35
2023-02-03T18:11:19.671Z,8.35
2023-02-03T18:14:21.794Z,8.30
2023-02-03T18:17:23.697Z,8.30
2023-02-03T18:20:26.011Z,8.37
2023-02-03T18:23:30.824Z,8.34
2023-02-03T18:26:36.772Z,8.44
2023-02-03T18:29:40.903Z,8.39
2023-02-03T18:32:42.918Z,8.44
2023-02-03T18:35:44.713Z,8.44
2023-02-03T18:38:48.686Z,8.47
2023-02-03T18:41:50.429Z,8.42
2023-02-03T18:44:52.441Z,8.49
2023-02-03T18:47:54.379Z,8.40
2023-02-03T18:50:56.365Z,8.55
2023-02-03T18:53:59.778Z,8.43
2023-02-03T18:57:03.032Z,8.41
2023-02-03T19:00:06.176Z,8.30
2023-02-03T19:03:08.130Z,8.31
2023-02-03T19:06:10.421Z,8.33
2023-02-03T19:09:16.128Z,8.32
2023-02-03T19:12:17.830Z,8.34
2023-02-03T19:15:19.644Z,8.43
2023-02-03T19:18:21.326Z,8.39
2023-02-03T19:21:23.077Z,8.37
2023-02-03T19:24:27.062Z,8.39
2023-02-03T19:27:28.806Z,8.13
2023-02-03T19:30:32.716Z,8.01
2023-02-03T19:33:34.748Z,7.92
2023-02-03T19:36:38.361Z,7.91
2023-02-03T19:39:41.450Z,7.85
2023-02-03T19:42:43.238Z,7.97
2023-02-03T19:45:44.999Z,7.87
2023-02-03T19:48:46.750Z,7.98
2023-02-03T19:51:48.518Z,7.99
2023-02-03T19:54:56.009Z,8.05
2023-02-03T19:57:59.951Z,7.89
2023-02-03T20:01:01.866Z,7.85
2023-02-03T20:04:04.347Z,7.74
2023-02-03T20:07:06.207Z,7.60
2023-02-03T20:10:10.550Z,7.49
2023-02-03T20:13:13.103Z,7.44
2023-02-03T20:16:15.246Z,7.37
2023-02-03T20:19:18.382Z,7.35
2023-02-03T20:22:20.266Z,7.36
2023-02-03T20:25:23.448Z,7.37
2023-02-03T20:28:27.559Z,7.41
2023-02-03T20:31:30.202Z,7.47
2023-02-03T20:34:32.392Z,7.49
2023-02-03T20:37:36.094Z,7.49
2023-02-03T20:40:39.354Z,7.49
2023-02-03T20:43:41.237Z,7.49
2023-02-03T20:46:42.931Z,7.50
2023-02-03T20:49:45.303Z,7.52
2023-02-03T20:52:47.120Z,7.47
2023-02-03T20:55:51.150Z,7.53
2023-02-03T20:58:53.175Z,7.54
2023-02-03T21:01:54.953Z,7.55
2023-02-03T21:05:00.187Z,7.54
2023-02-03T21:08:01.958Z,7.52
2023-02-03T21:11:10.777Z,7.53
2023-02-03T21:14:18.945Z,7.55
2023-02-03T21:17:23.444Z,7.55
2023-02-03T21:20:28.437Z,7.63
2023-02-03T21:23:37.812Z,7.59
2023-02-03T21:26:41.286Z,7.54
2023-02-03T21:29:43.219Z,7.52
2023-02-03T21:32:44.951Z,7.54
2023-02-03T21:35:46.598Z,7.59
2023-02-03T21:38:49.898Z,7.64
2023-02-03T21:41:53.030Z,7.64
2023-02-03T21:44:54.785Z,7.65
2023-02-03T21:47:58.484Z,7.67
2023-02-03T21:51:02.294Z,7.68
2023-02-03T21:54:23.738Z,7.71
2023-02-03T21:57:26.933Z,7.61
2023-02-03T22:00:39.826Z,7.64
2023-02-03T22:03:43.372Z,7.65
2023-02-03T22:06:49.027Z,7.63
2023-02-03T22:09:51.572Z,7.66
2023-02-03T22:12:54.840Z,7.64
2023-02-03T22:15:56.808Z,7.68
2023-02-03T22:18:58.440Z,7.73
2023-02-03T22:22:00.235Z,7.91
2023-02-03T22:25:02.093Z,7.89
2023-02-03T22:28:06.100Z,7.98
2023-02-03T22:31:08.594Z,8.04
2023-02-03T22:34:10.395Z,8.06
2023-02-03T22:37:12.206Z,8.01
2023-02-03T22:40:14.047Z,7.98
2023-02-03T22:43:17.127Z,7.99
2023-02-03T22:46:18.962Z,7.98
2023-02-03T22:49:20.899Z,7.97
2023-02-03T22:52:22.586Z,7.97
2023-02-03T22:55:24.509Z,8.03
2023-02-03T22:58:27.771Z,8.06
2023-02-03T23:01:29.484Z,8.03
2023-02-03T23:04:31.190Z,8.03
2023-02-03T23:07:33.375Z,8.02
2023-02-03T23:10:35.142Z,7.93
2023-02-03T23:13:38.809Z,7.82
2023-02-03T23:16:40.494Z,8.01
2023-02-03T23:19:42.194Z,8.00
2023-02-03T23:22:44.963Z,8.05
2023-02-03T23:25:46.629Z,8.16
2023-02-03T23:28:49.743Z,8.28
2023-02-03T23:31:51.588Z,8.26
2023-02-03T23:35:12.171Z,8.20
2023-02-03T23:38:14.963Z,8.17
2023-02-03T23:41:16.722Z,8.13
2023-02-03T23:44:19.867Z,8.05
2023-02-03T23:47:21.633Z,7.84
2023-02-03T23:50:23.337Z,7.69
2023-02-03T23:53:25.110Z,7.67
2023-02-03T23:56:26.858Z,8.04
2023-02-03T23:59:29.929Z,7.94
